createdAt,value
2017-09-02T00:03:51.040Z,0
2017-09-02T00:08:56.452Z,0
2017-09-02T00:14:01.887Z,0
2017-09-02T00:19:07.606Z,0
2017-09-02T00:24:13.354Z,0
2017-09-02T00:29:19.098Z,0
2017-09-02T00:34:24.504Z,0
2017-09-02T00:39:29.912Z,0
2017-09-02T00:44:35.993Z,0
2017-09-02T00:49:41.734Z,0
2017-09-02T00:54:46.818Z,0
2017-09-02T00:59:52.560Z,0
2017-09-02T01:04:57.633Z,0
2017-09-02T01:10:03.044Z,0
2017-09-02T01:15:08.135Z,0
2017-09-02T01:20:13.208Z,0
2017-09-02T01:25:17.956Z,0
2017-09-02T01:30:23.372Z,0
2017-09-02T01:35:28.813Z,0
2017-09-02T01:40:34.558Z,0
2017-09-02T01:45:39.297Z,0
2017-09-02T01:50:45.039Z,0
2017-09-02T01:55:50.109Z,0
2017-09-02T02:00:54.848Z,0
2017-09-02T02:06:00.587Z,0
2017-09-02T02:11:05.660Z,0
2017-09-02T02:16:11.075Z,0
2017-09-02T02:21:16.150Z,0
2017-09-02T02:26:20.546Z,0
2017-09-02T02:31:25.621Z,0
2017-09-02T02:36:30.353Z,0
2017-09-02T02:41:35.421Z,0
2017-09-02T02:46:40.824Z,0
2017-09-02T02:51:45.896Z,0
2017-09-02T02:56:51.643Z,0
2017-09-02T03:01:57.389Z,0
2017-09-02T03:07:02.789Z,0
2017-09-02T03:12:07.858Z,0
2017-09-02T03:17:12.930Z,0
2017-09-02T03:22:19.005Z,0
2017-09-02T03:27:24.084Z,0
2017-09-02T03:32:29.152Z,0
2017-09-02T03:37:33.885Z,0
2017-09-02T03:42:39.627Z,0
2017-09-02T03:47:45.372Z,0
2017-09-02T03:52:50.775Z,0
2017-09-02T03:57:56.180Z,0
2017-09-02T04:03:01.918Z,1
2017-09-02T04:08:06.990Z,1
2017-09-02T04:13:12.396Z,2
2017-09-02T04:18:17.466Z,5
2017-09-02T04:23:23.212Z,10
2017-09-02T04:28:27.614Z,15
2017-09-02T04:33:32.685Z,24
2017-09-02T04:38:37.418Z,39
2017-09-02T04:43:42.493Z,57
2017-09-02T04:48:47.565Z,78
2017-09-02T04:53:52.638Z,104
2017-09-02T04:58:57.372Z,130
2017-09-02T05:04:02.795Z,153
2017-09-02T05:09:07.531Z,152
2017-09-02T05:14:13.272Z,169
2017-09-02T05:19:19.015Z,180
2017-09-02T05:24:24.757Z,199
2017-09-02T05:29:30.506Z,241
2017-09-02T05:34:35.912Z,244
2017-09-02T05:39:41.315Z,226
2017-09-02T05:44:47.058Z,268
2017-09-02T05:49:52.805Z,279
2017-09-02T05:54:58.210Z,260
2017-09-02T06:00:03.279Z,298
2017-09-02T06:05:08.350Z,417
2017-09-02T06:10:13.424Z,527
2017-09-02T06:15:18.832Z,588
2017-09-02T06:20:23.907Z,842
2017-09-02T06:25:28.306Z,1163
2017-09-02T06:30:33.712Z,1279
2017-09-02T06:35:39.665Z,1598
2017-09-02T06:40:45.748Z,2084
2017-09-02T06:45:50.485Z,2489
2017-09-02T06:50:55.905Z,2810
2017-09-02T06:56:01.329Z,3181
2017-09-02T07:01:07.408Z,3477
2017-09-02T07:06:12.169Z,3729
2017-09-02T07:11:17.247Z,4463
2017-09-02T07:16:21.988Z,5085
2017-09-02T07:21:26.732Z,5699
2017-09-02T07:26:32.155Z,6221
2017-09-02T07:31:36.895Z,6815
2017-09-02T07:36:42.318Z,7412
2017-09-02T07:41:48.069Z,7667
2017-09-02T07:46:53.817Z,7848
2017-09-02T07:51:59.234Z,7856
2017-09-02T07:57:04.983Z,7807
2017-09-02T08:02:09.725Z,7764
2017-09-02T08:07:14.809Z,9525
2017-09-02T08:12:20.624Z,65535
2017-09-02T08:17:25.739Z,28480
2017-09-02T08:22:30.823Z,31448
2017-09-02T08:27:36.587Z,28256
2017-09-02T08:32:41.356Z,51704
2017-09-02T08:37:46.788Z,34048
2017-09-02T08:42:52.222Z,38776
2017-09-02T08:47:57.657Z,54816
2017-09-02T08:53:02.088Z,34648
2017-09-02T08:58:08.189Z,33544
2017-09-02T09:03:13.286Z,9115
2017-09-02T09:08:17.719Z,39472
2017-09-02T09:13:23.167Z,44944
2017-09-02T09:18:28.651Z,5309
2017-09-02T09:23:34.084Z,41832
2017-09-02T09:28:39.509Z,3409
2017-09-02T09:33:44.932Z,1481
2017-09-02T09:38:50.026Z,2387
2017-09-02T09:43:55.454Z,55176
2017-09-02T09:49:01.212Z,2225
2017-09-02T09:54:06.887Z,1338
2017-09-02T09:59:11.304Z,881
2017-09-02T10:04:16.385Z,1474
2017-09-02T10:09:22.475Z,3621
2017-09-02T10:14:28.228Z,3097
2017-09-02T10:19:33.989Z,2657
2017-09-02T10:24:39.405Z,2487
2017-09-02T10:29:44.159Z,2475
2017-09-02T10:34:49.244Z,1359
2017-09-02T10:39:53.994Z,2595
2017-09-02T10:44:59.747Z,2499
2017-09-02T10:50:05.500Z,2124
2017-09-02T10:55:11.583Z,1327
2017-09-02T11:00:17.015Z,2012
2017-09-02T11:05:21.767Z,1898
2017-09-02T11:10:27.183Z,1854
2017-09-02T11:15:31.926Z,1686
2017-09-02T11:20:37.015Z,1608
2017-09-02T11:25:42.791Z,1851
2017-09-02T11:30:48.972Z,1795
2017-09-02T11:35:53.724Z,2149
2017-09-02T11:40:59.140Z,1674
2017-09-02T11:46:04.899Z,1533
2017-09-02T11:51:10.322Z,1532
2017-09-02T11:56:16.091Z,1657
2017-09-02T12:01:21.226Z,1606
2017-09-02T12:06:26.661Z,1595
2017-09-02T12:11:31.489Z,1651
2017-09-02T12:16:37.288Z,1521
2017-09-02T12:21:42.770Z,1434
2017-09-02T12:26:48.934Z,1417
2017-09-02T12:31:54.053Z,1384
2017-09-02T12:36:58.495Z,1399
2017-09-02T12:42:03.591Z,816
2017-09-02T12:47:08.694Z,1481
2017-09-02T12:52:13.455Z,1456
2017-09-02T12:57:19.205Z,1402
2017-09-02T13:02:25.180Z,711
2017-09-02T13:07:30.255Z,1118
2017-09-02T13:12:35.351Z,866
2017-09-02T13:17:41.438Z,1295
2017-09-02T13:22:46.851Z,751
2017-09-02T13:27:52.597Z,892
2017-09-02T13:32:58.012Z,868
2017-09-02T13:38:03.088Z,817
2017-09-02T13:43:08.228Z,775
2017-09-02T13:48:14.049Z,513
2017-09-02T13:53:19.504Z,576
2017-09-02T13:58:25.249Z,613
2017-09-02T14:03:30.324Z,475
2017-09-02T14:08:35.729Z,490
2017-09-02T14:13:41.149Z,454
2017-09-02T14:18:46.568Z,463
2017-09-02T14:23:52.316Z,466
2017-09-02T14:28:57.723Z,508
2017-09-02T14:34:03.130Z,554
2017-09-02T14:39:08.559Z,428
2017-09-02T14:44:13.636Z,422
2017-09-02T14:49:18.782Z,480
2017-09-02T14:54:23.825Z,438
2017-09-02T14:59:28.590Z,566
2017-09-02T15:04:33.667Z,583
2017-09-02T15:09:39.083Z,562
2017-09-02T15:14:44.559Z,496
2017-09-02T15:19:50.246Z,472
2017-09-02T15:24:56.033Z,371
2017-09-02T15:30:01.781Z,317
2017-09-02T15:35:06.912Z,293
2017-09-02T15:40:12.335Z,294
2017-09-02T15:45:17.437Z,321
2017-09-02T15:50:23.182Z,378
2017-09-02T15:55:27.931Z,412
2017-09-02T16:00:33.697Z,400
2017-09-02T16:05:38.439Z,389
2017-09-02T16:10:43.510Z,386
2017-09-02T16:15:48.920Z,358
2017-09-02T16:20:54.333Z,347
2017-09-02T16:26:00.075Z,300
2017-09-02T16:31:04.817Z,304
2017-09-02T16:36:10.558Z,288
2017-09-02T16:41:15.988Z,293
2017-09-02T16:46:21.064Z,292
2017-09-02T16:51:27.029Z,286
2017-09-02T16:56:31.776Z,241
2017-09-02T17:01:37.187Z,228
2017-09-02T17:06:42.593Z,198
2017-09-02T17:11:48.335Z,174
2017-09-02T17:16:53.410Z,160
2017-09-02T17:21:58.815Z,142
2017-09-02T17:27:04.221Z,124
2017-09-02T17:32:09.625Z,109
2017-09-02T17:37:15.376Z,94
2017-09-02T17:42:20.447Z,81
2017-09-02T17:47:25.521Z,65
2017-09-02T17:52:30.600Z,50
2017-09-02T17:57:36.339Z,37
2017-09-02T18:02:41.077Z,27
2017-09-02T18:07:45.813Z,17
2017-09-02T18:12:51.555Z,12
2017-09-02T18:17:57.017Z,7
2017-09-02T18:23:02.423Z,3
2017-09-02T18:28:07.173Z,2
2017-09-02T18:33:11.912Z,1
2017-09-02T18:38:16.663Z,1
2017-09-02T18:43:21.397Z,0
2017-09-02T18:48:27.159Z,0
2017-09-02T18:53:32.573Z,0
2017-09-02T18:58:37.986Z,0
2017-09-02T19:03:43.392Z,0
2017-09-02T19:08:49.134Z,0
2017-09-02T19:13:54.209Z,0
2017-09-02T19:18:58.625Z,0
2017-09-02T19:24:03.026Z,0
2017-09-02T19:29:08.438Z,0
2017-09-02T19:34:13.516Z,0
2017-09-02T19:39:18.930Z,0
2017-09-02T19:44:24.017Z,0
2017-09-02T19:49:28.758Z,0
2017-09-02T19:54:34.183Z,0
2017-09-02T19:59:38.919Z,0
2017-09-02T20:04:44.333Z,0
2017-09-02T20:09:49.408Z,0
2017-09-02T20:14:54.221Z,1
2017-09-02T20:19:59.656Z,1
2017-09-02T20:25:05.071Z,1
2017-09-02T20:30:09.482Z,1
2017-09-02T20:35:14.561Z,1
2017-09-02T20:40:20.655Z,1
2017-09-02T20:45:26.081Z,1
2017-09-02T20:50:31.158Z,1
2017-09-02T20:55:36.238Z,1
2017-09-02T21:00:40.985Z,1
2017-09-02T21:05:46.064Z,1
2017-09-02T21:10:50.821Z,1
2017-09-02T21:15:56.908Z,1
2017-09-02T21:21:01.648Z,1
2017-09-02T21:26:06.879Z,0
2017-09-02T21:31:11.650Z,0
2017-09-02T21:36:16.736Z,0
2017-09-02T21:41:21.812Z,0
2017-09-02T21:46:26.221Z,0
2017-09-02T21:51:31.293Z,0
2017-09-02T21:56:36.363Z,0
2017-09-02T22:01:42.133Z,0
2017-09-02T22:06:47.544Z,0
2017-09-02T22:11:52.643Z,0
2017-09-02T22:16:57.726Z,0
2017-09-02T22:22:03.138Z,0
2017-09-02T22:27:08.548Z,0
2017-09-02T22:32:13.959Z,0
2017-09-02T22:37:19.389Z,0
2017-09-02T22:42:24.793Z,0
2017-09-02T22:47:30.070Z,0
2017-09-02T22:52:35.163Z,0
2017-09-02T22:57:40.575Z,0
2017-09-02T23:02:46.327Z,0
2017-09-02T23:07:51.743Z,0
2017-09-02T23:12:57.159Z,0
2017-09-02T23:18:02.899Z,0
2017-09-02T23:23:08.645Z,0
2017-09-02T23:28:14.074Z,0
2017-09-02T23:33:19.479Z,0
2017-09-02T23:38:24.217Z,0
2017-09-02T23:43:29.293Z,0
2017-09-02T23:48:34.040Z,0
2017-09-02T23:53:40.114Z,0
2017-09-02T23:58:46.191Z,0
